Time;durP1;ratioP1;P1;durP2;ratioP2;P2;SDS_P1;SDS_P2;PMS_P1;PMS_P2;Temp;Humidity;BMP_temperature;BMP_pressure;BME280_temperature;BME280_humidity;BME280_pressure;Samples;Min_cycle;Max_cycle;Signal;HPM_P1;HPM_P2
2021/12/28 07:05:22;;;;;;;44.75;21.52;;;;;;;-5.59;85.79;97974.28;1828290;78;20962;-66
2021/12/28 07:07:49;;;;;;;33.40;16.77;;;;;;;-5.60;85.79;97979.17;1827898;78;21114;-66
2021/12/28 07:10:20;;;;;;;25.40;12.93;;;;;;;-5.58;85.74;97978.48;1837573;77;21295;-60
2021/12/28 07:12:44;;;;;;;21.20;13.25;;;;;;;-5.50;85.61;97974.13;1861203;77;21240;-68
2021/12/28 07:15:12;;;;;;;23.62;13.80;;;;;;;-5.41;85.63;97982.94;1860832;77;20919;-59
2021/12/28 07:17:40;;;;;;;23.70;14.00;;;;;;;-5.26;85.47;97978.92;1861332;77;21505;-61
2021/12/28 07:20:08;;;;;;;21.80;12.58;;;;;;;-5.13;85.26;97971.16;1861282;77;21054;-61
2021/12/28 07:22:36;;;;;;;22.67;13.43;;;;;;;-5.04;85.05;97973.44;1861780;77;20852;-61
2021/12/28 07:25:04;;;;;;;24.98;14.20;;;;;;;-4.95;84.64;97968.88;1848794;77;20908;-69
2021/12/28 07:27:31;;;;;;;25.30;13.13;;;;;;;-4.92;84.35;97973.70;1857487;77;21551;-67
2021/12/28 07:29:57;;;;;;;22.85;12.98;;;;;;;-4.89;84.00;97973.33;1854597;77;20950;-65
2021/12/28 07:32:24;;;;;;;26.12;14.45;;;;;;;-4.91;83.49;97975.33;1859962;77;21470;-63
2021/12/28 07:34:51;;;;;;;22.27;12.85;;;;;;;-4.96;83.66;97982.44;1861829;77;20883;-63
2021/12/28 07:37:18;;;;;;;21.73;12.20;;;;;;;-4.91;83.33;97980.55;1861889;77;20876;-62
2021/12/28 07:39:47;;;;;;;26.25;13.00;;;;;;;-4.86;83.43;97976.38;1861591;77;20888;-61
2021/12/28 07:42:13;;;;;;;23.05;13.80;;;;;;;-4.79;83.19;97981.63;1861437;77;20958;-64
2021/12/28 07:44:40;;;;;;;22.82;13.62;;;;;;;-4.71;82.75;97976.22;1861222;77;21468;-65
2021/12/28 07:47:08;;;;;;;22.37;13.45;;;;;;;-4.71;82.52;97983.28;1859635;77;20876;-65
2021/12/28 07:49:36;;;;;;;26.60;14.18;;;;;;;-4.72;82.46;97977.23;1860241;77;20938;-65
2021/12/28 07:52:04;;;;;;;25.95;13.78;;;;;;;-4.69;82.27;97977.35;1844846;77;21306;-63
2021/12/28 07:54:32;;;;;;;23.12;13.88;;;;;;;-4.64;82.38;97973.66;1831027;77;20992;-63
2021/12/28 07:56:59;;;;;;;24.85;13.83;;;;;;;-4.58;82.09;97969.77;1859175;77;21303;-69
2021/12/28 07:59:26;;;;;;;25.95;13.95;;;;;;;-4.52;81.91;97975.50;1859068;77;20852;-70
2021/12/28 08:01:53;;;;;;;28.80;14.03;;;;;;;-4.49;81.67;97967.28;1852232;76;20915;-65
2021/12/28 08:04:20;;;;;;;25.68;14.15;;;;;;;-4.45;81.63;97969.02;1848448;77;21043;-62
2021/12/28 08:06:47;;;;;;;19.42;12.63;;;;;;;-4.38;81.48;97962.00;1848402;77;20872;-62
2021/12/28 08:09:14;;;;;;;22.73;12.28;;;;;;;-4.36;81.14;97960.77;1845012;77;21768;-62
2021/12/28 08:11:42;;;;;;;21.95;11.93;;;;;;;-4.33;81.18;97964.80;1825810;77;20967;-67
2021/12/28 08:14:09;;;;;;;23.77;12.95;;;;;;;-4.30;81.10;97967.04;1840552;77;20880;-63
2021/12/28 08:16:36;;;;;;;21.73;12.33;;;;;;;-4.22;80.90;97968.18;1844344;77;21022;-62
2021/12/28 08:19:04;;;;;;;22.62;12.70;;;;;;;-4.21;80.59;97970.59;1764782;81;20931;-65
2021/12/28 08:21:33;;;;;;;18.50;12.70;;;;;;;-4.18;80.43;97975.93;1783957;80;20982;-64
2021/12/28 08:24:00;;;;;;;21.52;12.23;;;;;;;-4.12;80.50;97974.34;1763683;81;21026;-64
2021/12/28 08:26:27;;;;;;;22.10;12.37;;;;;;;-4.06;80.13;97974.84;1755663;81;21545;-69
2021/12/28 08:28:54;;;;;;;16.67;11.25;;;;;;;-4.05;79.98;97967.31;1756786;81;20935;-65
2021/12/28 08:31:20;;;;;;;25.23;13.25;;;;;;;-4.01;79.83;97964.11;1757032;81;21042;-65
2021/12/28 08:33:47;;;;;;;24.12;13.05;;;;;;;-3.98;79.70;97958.98;1756854;81;21187;-67
2021/12/28 08:36:14;;;;;;;35.33;17.32;;;;;;;-3.94;79.42;97957.56;1757122;81;20896;-65
2021/12/28 08:38:43;;;;;;;40.92;20.48;;;;;;;-3.92;79.37;97963.41;1757570;80;21075;-65
2021/12/28 08:41:17;;;;;;;22.25;13.93;;;;;;;-3.92;79.28;97968.64;1755977;81;21142;-63
2021/12/28 08:43:45;;;;;;;39.92;18.55;;;;;;;-3.98;78.85;97965.52;1753719;81;21090;-60
2021/12/28 08:46:12;;;;;;;30.92;16.75;;;;;;;-4.06;79.11;97956.53;1755633;81;21094;-65
2021/12/28 08:48:39;;;;;;;39.70;19.37;;;;;;;-4.09;79.29;97956.92;1766274;80;21090;-70
2021/12/28 08:52:03;;;;;;;31.20;16.45;;;;;;;-4.06;79.52;97946.07;1869827;76;27278;-64
2021/12/28 08:54:30;;;;;;;66.95;29.77;;;;;;;-4.11;79.60;97945.86;1806182;77;20967;-66
2021/12/28 08:56:57;;;;;;;123.55;57.33;;;;;;;-4.04;79.59;97946.67;1801813;77;22426;-65
2021/12/28 08:59:24;;;;;;;50.85;27.37;;;;;;;-4.02;79.57;97939.42;1821311;78;20935;-64
2021/12/28 09:01:51;;;;;;;35.35;19.87;;;;;;;-3.95;79.40;97941.05;1821082;77;21490;-67
2021/12/28 09:04:18;;;;;;;50.25;28.55;;;;;;;-3.89;79.21;97939.46;1801306;78;21095;-66
2021/12/28 09:06:45;;;;;;;44.03;25.30;;;;;;;-3.85;78.97;97940.66;1793924;80;20951;-65
2021/12/28 09:09:12;;;;;;;29.32;18.25;;;;;;;-3.82;78.81;97929.80;1793647;80;21113;-74
2021/12/28 09:11:42;;;;;;;31.12;18.70;;;;;;;-3.83;78.57;97922.95;1794126;79;21073;-65
2021/12/28 09:14:09;;;;;;;23.90;16.55;;;;;;;-3.82;78.60;97927.19;1794966;80;21470;-65
2021/12/28 09:16:36;;;;;;;25.95;15.80;;;;;;;-3.79;78.57;97925.48;1794091;80;20912;-72
2021/12/28 09:19:03;;;;;;;27.37;15.15;;;;;;;-3.72;78.44;97931.53;1793549;80;21034;-71
2021/12/28 09:21:30;;;;;;;29.12;18.20;;;;;;;-3.68;78.50;97930.92;1793656;79;21490;-69
2021/12/28 09:23:57;;;;;;;31.57;18.32;;;;;;;-3.59;78.41;97928.90;1793651;80;20990;-64
2021/12/28 09:26:24;;;;;;;20.75;13.35;;;;;;;-3.51;78.34;97935.25;1793601;80;21359;-68
2021/12/28 09:28:51;;;;;;;22.02;13.50;;;;;;;-3.40;78.14;97930.70;1793627;80;21015;-70
2021/12/28 09:31:17;;;;;;;24.40;15.23;;;;;;;-3.34;77.93;97931.19;1794388;77;21046;-63
2021/12/28 09:33:44;;;;;;;27.80;16.27;;;;;;;-3.27;77.72;97937.22;1829251;78;21107;-69
2021/12/28 09:36:14;;;;;;;35.88;21.25;;;;;;;-3.23;77.46;97930.59;1836975;77;20891;-63
2021/12/28 09:38:42;;;;;;;37.98;22.70;;;;;;;-3.19;77.41;97926.54;1855742;77;20899;-62
2021/12/28 09:41:09;;;;;;;27.95;17.90;;;;;;;-3.13;77.10;97924.39;1861974;76;20906;-68
2021/12/28 09:43:37;;;;;;;37.45;22.70;;;;;;;-3.10;77.02;97917.44;1794473;78;21028;-74
2021/12/28 09:46:04;;;;;;;22.58;14.50;;;;;;;-3.08;76.71;97915.42;1805536;78;21087;-71
2021/12/28 09:48:31;;;;;;;35.00;21.52;;;;;;;-3.09;76.37;97924.31;1794354;80;21378;-67
2021/12/28 09:50:59;;;;;;;31.23;18.15;;;;;;;-3.14;76.34;97926.73;1801699;78;20975;-65
2021/12/28 09:53:26;;;;;;;26.40;16.05;;;;;;;-3.14;76.39;97927.23;1825723;77;20910;-65
2021/12/28 09:55:52;;;;;;;25.43;16.02;;;;;;;-3.14;76.10;97934.59;1824758;78;21027;-66
2021/12/28 09:58:19;;;;;;;26.12;15.95;;;;;;;-3.15;76.12;97943.45;1824812;78;21099;-68
2021/12/28 10:00:46;;;;;;;30.70;18.07;;;;;;;-3.14;76.20;97945.08;1824797;78;21462;-69
2021/12/28 10:03:14;;;;;;;27.58;16.95;;;;;;;-3.11;76.22;97932.85;1824336;78;20968;-62
2021/12/28 10:05:41;;;;;;;26.07;16.23;;;;;;;-3.07;76.00;97938.00;1826675;77;20888;-65
2021/12/28 10:08:08;;;;;;;18.80;12.30;;;;;;;-3.03;76.04;97936.58;1785482;80;20970;-63
2021/12/28 10:10:42;;;;;;;25.97;16.37;;;;;;;-2.98;75.37;97935.95;1765693;81;21120;-67
2021/12/28 10:13:19;;;;;;;22.70;14.07;;;;;;;-3.05;75.43;97938.60;1765737;81;20913;-69
2021/12/28 10:15:47;;;;;;;22.37;14.10;;;;;;;-3.13;75.29;97941.42;1765666;81;20976;-64
2021/12/28 10:18:13;;;;;;;31.70;17.75;;;;;;;-3.20;75.57;97928.06;1785569;80;21444;-68
2021/12/28 10:20:49;;;;;;;24.47;14.80;;;;;;;-3.23;75.73;97937.13;1754411;81;20839;-67
2021/12/28 10:23:21;;;;;;;25.20;15.78;;;;;;;-3.19;75.96;97928.34;1789633;77;20913;-62
2021/12/28 10:25:56;;;;;;;22.05;13.60;;;;;;;-3.14;75.81;97925.42;1794823;79;20874;-66
2021/12/28 10:28:33;;;;;;;30.62;16.75;;;;;;;-3.18;75.50;97922.89;1784479;80;20921;-69
2021/12/28 10:31:06;;;;;;;30.40;18.35;;;;;;;-3.21;75.84;97918.58;1792364;79;20976;-63
2021/12/28 10:33:37;;;;;;;25.05;13.75;;;;;;;-3.19;75.65;97923.92;1758812;81;21010;-68
2021/12/28 10:36:07;;;;;;;23.00;14.55;;;;;;;-3.17;75.69;97928.45;1753832;81;21092;-71
2021/12/28 10:38:41;;;;;;;20.77;14.15;;;;;;;-3.13;75.88;97928.33;1774415;79;21539;-71
2021/12/28 10:41:14;;;;;;;20.85;12.55;;;;;;;-3.04;75.74;97928.93;1753892;81;21009;-64
2021/12/28 10:43:45;;;;;;;21.55;14.65;;;;;;;-2.98;75.41;97922.85;1791927;79;20985;-65
2021/12/28 10:46:22;;;;;;;23.60;14.87;;;;;;;-3.01;75.20;97913.59;1757813;80;21548;-64
2021/12/28 10:48:52;;;;;;;24.65;14.53;;;;;;;-3.07;75.09;97914.42;1774828;80;21083;-63
2021/12/28 10:51:31;;;;;;;23.30;14.10;;;;;;;-3.16;75.00;97914.34;1786412;80;20959;-58
2021/12/28 10:56:41;;;;;;;26.85;15.23;;;;;;;-3.25;75.40;97912.92;1727861;81;21114;-66
2021/12/28 10:59:10;;;;;;;22.52;13.72;;;;;;;-3.27;75.39;97912.33;1753301;81;21146;-66
2021/12/28 11:01:42;;;;;;;22.98;14.10;;;;;;;-3.24;75.50;97905.87;1778731;80;21145;-62
2021/12/28 11:04:12;;;;;;;20.57;13.62;;;;;;;-3.25;75.48;97912.92;1774657;80;20982;-67
2021/12/28 11:06:46;;;;;;;24.18;13.65;;;;;;;-3.29;75.74;97910.43;1782435;80;21593;-59
2021/12/28 11:09:25;;;;;;;23.47;14.33;;;;;;;-3.29;75.85;97907.00;1773802;80;20891;-68
2021/12/28 11:11:54;;;;;;;20.05;13.08;;;;;;;-3.25;75.66;97901.14;1782267;80;20928;-65
2021/12/28 11:14:24;;;;;;;21.33;15.03;;;;;;;-3.23;75.28;97893.09;1781194;80;21115;-62
2021/12/28 11:16:55;;;;;;;20.05;13.88;;;;;;;-3.27;75.20;97894.00;1783497;80;20951;-64
2021/12/28 11:19:29;;;;;;;27.30;15.60;;;;;;;-3.37;75.19;97890.20;1768770;80;20940;-57
2021/12/28 11:21:59;;;;;;;21.25;14.63;;;;;;;-3.47;75.59;97890.63;1765920;80;20927;-63
2021/12/28 11:24:30;;;;;;;21.00;13.80;;;;;;;-3.42;75.81;97897.37;1770017;80;21038;-63
2021/12/28 11:26:57;;;;;;;23.45;14.60;;;;;;;-3.37;75.70;97896.25;1779870;79;21079;-63
2021/12/28 11:29:30;;;;;;;23.50;15.63;;;;;;;-3.36;75.60;97886.06;1763037;80;20946;-64
2021/12/28 11:32:01;;;;;;;26.60;16.75;;;;;;;-3.37;75.78;97879.23;1756322;80;21505;-70
2021/12/28 11:34:36;;;;;;;20.45;13.38;;;;;;;-3.35;75.69;97887.69;1765723;80;21048;-62
2021/12/28 11:37:17;;;;;;;23.00;13.88;;;;;;;-3.36;75.62;97872.16;1762569;80;20998;-67
2021/12/28 11:39:50;;;;;;;20.20;13.40;;;;;;;-3.36;75.62;97872.97;1781577;80;21104;-67
2021/12/28 11:42:18;;;;;;;21.62;13.88;;;;;;;-3.36;75.58;97873.46;1780447;80;20971;-65
2021/12/28 11:44:45;;;;;;;22.37;14.07;;;;;;;-3.37;75.60;97872.69;1762814;80;21574;-66
2021/12/28 11:47:13;;;;;;;22.07;14.87;;;;;;;-3.35;75.61;97880.33;1776828;80;20987;-62
2021/12/28 11:49:41;;;;;;;21.37;12.75;;;;;;;-3.29;75.71;97884.23;1749144;80;20979;-62
2021/12/28 11:52:15;;;;;;;21.77;14.53;;;;;;;-3.23;75.58;97881.31;1778004;79;21099;-61
2021/12/28 11:54:45;;;;;;;21.45;13.08;;;;;;;-3.20;75.51;97888.23;1778806;80;21026;-63
2021/12/28 11:57:20;;;;;;;18.45;12.43;;;;;;;-3.21;75.26;97875.36;1776166;80;21577;-62
2021/12/28 12:00:03;;;;;;;20.60;13.65;;;;;;;-3.28;75.21;97870.14;1777571;80;20988;-64
2021/12/28 12:02:49;;;;;;;22.17;13.70;;;;;;;-3.37;75.33;97864.83;1765669;79;20979;-61
2021/12/28 12:05:26;;;;;;;20.00;12.88;;;;;;;-3.41;75.65;97864.91;1783489;79;21575;-64
2021/12/28 12:08:12;;;;;;;20.50;13.85;;;;;;;-3.40;75.73;97867.84;1774676;80;21475;-62
2021/12/28 12:10:45;;;;;;;21.05;14.07;;;;;;;-3.38;75.86;97868.44;1778909;80;20946;-63
2021/12/28 12:13:23;;;;;;;17.92;13.50;;;;;;;-3.36;75.92;97857.75;1760858;80;21537;-64
2021/12/28 12:15:58;;;;;;;19.55;12.75;;;;;;;-3.33;75.96;97860.78;1739504;81;20982;-61
2021/12/28 12:18:30;;;;;;;19.40;12.35;;;;;;;-3.31;75.77;97850.09;1778460;80;21465;-66
2021/12/28 12:21:04;;;;;;;20.90;13.68;;;;;;;-3.38;75.58;97854.04;1773531;80;20912;-66
2021/12/28 12:23:43;;;;;;;17.57;12.30;;;;;;;-3.40;75.90;97857.38;1763608;81;20937;-62
2021/12/28 12:26:11;;;;;;;17.80;11.85;;;;;;;-3.33;75.74;97850.80;1761757;81;20868;-69
2021/12/28 12:28:52;;;;;;;23.10;14.28;;;;;;;-3.33;75.63;97853.42;1752761;80;21542;-65
2021/12/28 12:31:31;;;;;;;21.15;13.65;;;;;;;-3.39;75.70;97847.17;1756938;81;21571;-61
2021/12/28 12:34:26;;;;;;;22.70;12.68;;;;;;;-3.35;75.86;97853.63;1784264;80;20982;-70
2021/12/28 12:36:56;;;;;;;18.20;13.70;;;;;;;-3.29;75.87;97860.66;1760615;81;21079;-65
2021/12/28 12:39:23;;;;;;;19.05;12.85;;;;;;;-3.23;75.82;97858.55;1776442;79;20991;-66
2021/12/28 12:41:55;;;;;;;24.77;15.75;;;;;;;-3.17;75.73;97855.09;1750271;81;21289;-66
2021/12/28 12:44:27;;;;;;;29.32;17.07;;;;;;;-3.19;75.55;97850.56;1782046;80;21121;-69
2021/12/28 12:47:06;;;;;;;26.70;15.75;;;;;;;-3.14;75.59;97849.94;1759254;80;20912;-61
2021/12/28 12:49:33;;;;;;;25.40;14.55;;;;;;;-3.10;75.49;97842.77;1783745;79;21011;-64
2021/12/28 12:52:15;;;;;;;19.55;13.62;;;;;;;-3.08;75.10;97843.86;1753824;81;21468;-62
2021/12/28 12:54:50;;;;;;;23.60;15.43;;;;;;;-3.13;74.91;97841.86;1778898;78;21010;-60
2021/12/28 12:57:30;;;;;;;29.50;18.48;;;;;;;-3.18;75.04;97840.36;1778204;79;21118;-61
2021/12/28 13:00:15;;;;;;;20.92;12.78;;;;;;;-3.15;75.04;97846.52;1755746;80;21579;-60
2021/12/28 13:02:43;;;;;;;26.65;16.17;;;;;;;-3.15;74.76;97842.58;1773352;80;21506;-63
2021/12/28 13:05:19;;;;;;;19.52;13.60;;;;;;;-3.21;75.02;97847.34;1757540;80;21472;-68
2021/12/28 13:07:46;;;;;;;24.20;14.23;;;;;;;-3.16;75.13;97848.04;1763655;80;21641;-65
2021/12/28 13:10:17;;;;;;;23.65;14.78;;;;;;;-3.16;74.88;97855.40;1751070;81;21143;-67
2021/12/28 13:12:47;;;;;;;26.80;16.97;;;;;;;-3.13;75.12;97853.66;1780510;80;21106;-65
2021/12/28 13:15:16;;;;;;;22.48;14.47;;;;;;;-3.02;75.10;97863.52;1751831;81;20879;-64
2021/12/28 13:17:45;;;;;;;22.50;14.85;;;;;;;-2.96;74.78;97863.17;1771138;80;21068;-71
